Alys Beach, FL

7:23 AM CDT on April 29, 2017 (GMT -0500)
Storage for Stuff | | Change Station
Active Advisory: Coastal Hazard Statement Active Notice: Coastal Hazard Statement

Elev 56 ft 30.24 °N, 85.92 °W | Updated 6 seconds ago

Mostly Cloudy
Mostly Cloudy
77.0 °F
Feels Like 78 °F
N
6.8
Wind Variable Wind from SE

Today
High -- | Low -- °F
--% Chance of Precip.
Yesterday
High -- | Low -- °F
Precip. -- in
Pressure 30.09 in
Visibility 7.0 miles
Clouds Scattered Clouds 700 ft
Mostly Cloudy 2300 ft
Heat Index 78 °F
Dew Point 74 °F
Humidity 92%
Rainfall 0.00 in
Snow Depth Not available.
6:02 AM 7:20 PM
Waxing Crescent, 13% visible
METAR KECP 291153Z 11004KT 7SM SCT007 BKN023 24/22 A3006 RMK AO2 SLP189 T02390222 10239 20222 52010
Pressure 30.09 in
Visibility 7.0 miles
Clouds Scattered Clouds 700 ft
Mostly Cloudy 2300 ft
Heat Index 78 °F
Dew Point 74 °F
Humidity 92%
Rainfall 0.00 in
Snow Depth Not available.
6:02 AM 7:20 PM
Waxing Crescent, 13% visible
METAR KECP 291153Z 11004KT 7SM SCT007 BKN023 24/22 A3006 RMK AO2 SLP189 T02390222 10239 20222 52010

Get Your Daily Forecast Email!

Thanks for signing up!

Be on the lookout for a verification email in your inbox.

You'll start receiving severe weather alerts in your inbox..

×

10-Day Weather Forecast

Almanac

Astronomy

Apr. 29, 2017 Rise Set
Actual Time
Civil Twilight
Nautical Twilight
Astronomical Twilight
Moon
Length of Visible Light
Length of Day
Tomorrow will be .
, % of the Moon is Illuminated

Today's Extremes

State Highs State Lows

Community

WunderPhotos

WunderBlog® & News

Nearby

Air Quality

  Air Quality AQ Index Pollutant
Not available.

Snow Depth

Station Depth Elevation

Earthquake Activity

City Distance Mag. Time & Date
Minimum magnitude displayed is 2.5.

Coastal Water Temperatures

Place Temperature

Stations

Nearby Weather Stations

Station Location Temp. Windchill Dew Point Humidity Wind Precip. Elev Updated Type
                   

Watches & Warnings

Coastal Hazard Statement
Issued: 1:33 AM CDT Apr. 29, 2017 – National Weather Service

... High rip current risk now in effect through late Sunday
night...

* surf heights... 2 to 4 feet today increasing to 4 to 6 feet on
Sunday.

* Impacts... frequent life-threatening rip currents are expected.

Precautionary/preparedness actions...

There is a high risk of rip currents.

Rip currents are powerful channels of water flowing quickly away
from shore. They occur most often at low spots or breaks in The
Sandbar... as well as in the vicinity of jetties and piers.

Heed the advice of lifeguards... beach patrol flags... and signs
before entering the water. If caught in a rip current do not swim
against it. Face the shore and signal for help. Float or tread
water until the current ends or until rescued.



Dvd